createdAt,value
2019-05-25T00:00:07.861Z,69.00
2019-05-25T00:02:36.699Z,69.90
2019-05-25T00:05:09.198Z,70.60
2019-05-25T00:07:37.953Z,70.80
2019-05-25T00:10:08.409Z,70.80
2019-05-25T00:12:37.242Z,71.20
2019-05-25T00:15:07.188Z,71.20
2019-05-25T00:17:36.005Z,70.70
2019-05-25T00:20:05.963Z,70.90
2019-05-25T00:22:34.843Z,70.60
2019-05-25T00:25:04.123Z,71.60
2019-05-25T00:27:33.033Z,70.80
2019-05-25T00:30:01.887Z,70.90
2019-05-25T00:32:30.757Z,71.70
2019-05-25T00:34:59.605Z,72.10
2019-05-25T00:37:28.432Z,72.10
2019-05-25T00:39:57.286Z,72.30
2019-05-25T00:42:26.136Z,72.70
2019-05-25T00:44:54.959Z,72.80
2019-05-25T00:47:23.826Z,73.40
2019-05-25T00:49:52.710Z,74.30
2019-05-25T00:52:21.566Z,75.10
2019-05-25T00:54:50.383Z,75.60
2019-05-25T00:57:19.134Z,76.80
2019-05-25T00:59:47.984Z,77.00
2019-05-25T01:02:16.829Z,77.30
2019-05-25T01:04:45.679Z,78.30
2019-05-25T01:07:14.502Z,78.50
2019-05-25T01:09:43.341Z,78.90
2019-05-25T01:12:12.206Z,79.20
2019-05-25T01:14:41.070Z,80.40
2019-05-25T01:17:09.903Z,81.30
2019-05-25T01:19:38.744Z,81.20
2019-05-25T01:22:07.625Z,81.60
2019-05-25T01:24:44.291Z,83.60
2019-05-25T01:27:06.907Z,84.40
2019-05-25T01:29:35.878Z,84.80
2019-05-25T01:32:04.720Z,85.40
2019-05-25T01:34:33.481Z,86.50
2019-05-25T01:37:02.242Z,86.80
2019-05-25T01:39:31.090Z,87.40
2019-05-25T01:41:59.922Z,88.60
2019-05-25T01:44:28.765Z,89.50
2019-05-25T01:46:57.561Z,89.80
2019-05-25T01:49:26.368Z,89.90
2019-05-25T01:51:55.198Z,90.30
2019-05-25T01:54:26.694Z,90.60
2019-05-25T01:56:55.541Z,90.80
2019-05-25T01:59:27.099Z,90.60
2019-05-25T02:01:55.893Z,90.70
2019-05-25T02:04:24.707Z,90.40
2019-05-25T02:06:53.562Z,90.50
2019-05-25T02:09:22.976Z,89.70
2019-05-25T02:11:51.774Z,87.60
2019-05-25T02:14:20.595Z,86.80
2019-05-25T02:16:49.457Z,87.30
2019-05-25T02:19:18.283Z,85.90
2019-05-25T02:21:47.132Z,85.50
2019-05-25T02:24:15.894Z,85.20
2019-05-25T02:26:44.799Z,84.50
2019-05-25T02:29:13.622Z,83.90
2019-05-25T02:31:42.656Z,83.70
2019-05-25T02:34:11.482Z,83.30
2019-05-25T02:36:40.315Z,82.90
2019-05-25T02:39:09.486Z,83.00
2019-05-25T02:41:38.315Z,83.50
2019-05-25T02:44:07.223Z,83.40
2019-05-25T02:46:36.039Z,83.50
2019-05-25T02:49:05.627Z,83.90
2019-05-25T02:51:34.492Z,83.70
2019-05-25T02:54:03.324Z,83.90
2019-05-25T02:56:32.172Z,84.60
2019-05-25T02:59:01.003Z,83.70
2019-05-25T03:01:30.729Z,83.30
2019-05-25T03:03:59.550Z,83.30
2019-05-25T03:06:29.224Z,83.50
2019-05-25T03:08:58.149Z,83.20
2019-05-25T03:11:28.548Z,82.30
2019-05-25T03:13:58.364Z,82.50
2019-05-25T03:16:27.143Z,82.20
2019-05-25T03:18:56.000Z,81.60
2019-05-25T03:21:24.830Z,81.30
2019-05-25T03:23:53.666Z,80.60
2019-05-25T03:26:22.497Z,79.80
2019-05-25T03:28:51.336Z,79.40
2019-05-25T03:31:20.106Z,79.30
2019-05-25T03:33:48.866Z,79.00
2019-05-25T03:36:17.627Z,79.20
2019-05-25T03:38:46.469Z,79.40
2019-05-25T03:41:15.206Z,79.40
2019-05-25T03:43:44.045Z,79.40
2019-05-25T03:46:12.912Z,79.50
2019-05-25T03:48:41.680Z,80.50
2019-05-25T03:51:10.514Z,81.40
2019-05-25T03:53:39.368Z,81.90
2019-05-25T03:56:08.210Z,81.60
2019-05-25T03:58:36.966Z,81.80
2019-05-25T04:01:05.813Z,81.70
2019-05-25T04:03:34.649Z,81.30
2019-05-25T04:06:03.480Z,81.50
2019-05-25T04:08:32.315Z,81.20
2019-05-25T04:11:01.160Z,80.70
2019-05-25T04:13:29.989Z,80.60
2019-05-25T04:16:00.445Z,81.10
2019-05-25T04:18:30.107Z,80.60
2019-05-25T04:20:58.955Z,80.90
2019-05-25T04:23:27.727Z,81.90
2019-05-25T04:25:56.614Z,81.50
2019-05-25T04:28:25.460Z,81.70
2019-05-25T04:30:54.325Z,81.80
2019-05-25T04:33:23.145Z,81.90
2019-05-25T04:35:52.014Z,80.70
2019-05-25T04:38:20.868Z,80.10
2019-05-25T04:40:49.720Z,81.10
2019-05-25T04:43:18.629Z,80.30
2019-05-25T04:45:47.418Z,80.90
2019-05-25T04:48:16.182Z,81.50
2019-05-25T04:50:45.077Z,83.60
2019-05-25T04:53:13.896Z,87.60
2019-05-25T04:55:42.727Z,86.20
2019-05-25T04:58:11.563Z,88.80
2019-05-25T05:00:40.408Z,89.60
2019-05-25T05:03:09.247Z,89.90
2019-05-25T05:05:38.175Z,90.80
2019-05-25T05:08:07.000Z,91.40
2019-05-25T05:10:35.856Z,91.10
2019-05-25T05:13:04.702Z,90.80
2019-05-25T05:15:33.485Z,90.40
2019-05-25T05:18:02.368Z,91.50
2019-05-25T05:20:31.207Z,90.90
2019-05-25T05:23:00.110Z,92.20
2019-05-25T05:25:28.951Z,92.70
2019-05-25T05:27:57.817Z,92.70
2019-05-25T05:30:32.030Z,91.60
2019-05-25T05:33:00.842Z,92.10
2019-05-25T05:35:31.247Z,90.90
2019-05-25T05:38:02.279Z,90.70
2019-05-25T05:40:31.761Z,90.90
2019-05-25T05:43:02.677Z,90.80
2019-05-25T05:45:33.700Z,90.10
2019-05-25T05:48:03.965Z,90.60
2019-05-25T05:50:34.904Z,90.20
2019-05-25T05:53:04.025Z,90.20
2019-05-25T05:55:33.207Z,90.40
2019-05-25T05:58:02.547Z,89.50
2019-05-25T06:00:31.473Z,89.50
2019-05-25T06:03:00.421Z,89.20
2019-05-25T06:05:29.311Z,88.80
2019-05-25T06:07:58.072Z,89.00
2019-05-25T06:10:26.902Z,88.70
2019-05-25T06:12:55.735Z,87.70
2019-05-25T06:15:24.571Z,86.70
2019-05-25T06:17:53.429Z,86.70
2019-05-25T06:20:22.201Z,86.60
2019-05-25T06:22:51.137Z,86.50
2019-05-25T06:25:19.878Z,85.70
2019-05-25T06:27:48.735Z,85.20
2019-05-25T06:30:18.114Z,83.40
2019-05-25T06:32:47.031Z,84.50
2019-05-25T06:35:17.071Z,83.00
2019-05-25T06:37:45.946Z,81.40
2019-05-25T06:40:14.736Z,83.80
2019-05-25T06:42:43.679Z,82.40
2019-05-25T06:45:12.531Z,81.10
2019-05-25T06:47:41.315Z,79.60
2019-05-25T06:50:10.961Z,79.90
2019-05-25T06:52:41.278Z,77.80
2019-05-25T06:55:12.028Z,76.40
2019-05-25T06:57:43.599Z,77.40
2019-05-25T07:00:11.685Z,77.40
2019-05-25T07:02:40.530Z,76.60
2019-05-25T07:05:10.615Z,75.50
2019-05-25T07:07:39.439Z,75.30
2019-05-25T07:10:08.695Z,73.10
2019-05-25T07:12:37.536Z,71.20
2019-05-25T07:15:08.107Z,72.50
2019-05-25T07:17:36.977Z,73.20
2019-05-25T07:20:08.148Z,73.20
2019-05-25T07:22:36.976Z,74.00
2019-05-25T07:25:09.176Z,73.30
2019-05-25T07:27:38.140Z,75.20
2019-05-25T07:30:08.022Z,72.70
2019-05-25T07:32:36.837Z,72.80
2019-05-25T07:35:08.365Z,72.50
2019-05-25T07:37:37.311Z,73.80
2019-05-25T07:40:07.451Z,75.10
2019-05-25T07:42:36.534Z,72.90
2019-05-25T07:45:08.740Z,72.00
2019-05-25T07:47:37.555Z,72.80
2019-05-25T07:50:13.415Z,69.40
2019-05-25T07:52:42.260Z,70.20
2019-05-25T07:55:13.455Z,67.60
2019-05-25T07:57:42.290Z,63.10
2019-05-25T08:00:11.095Z,65.90
2019-05-25T08:02:39.954Z,64.00
2019-05-25T08:05:08.910Z,61.50
2019-05-25T08:07:37.833Z,60.70
2019-05-25T08:10:07.368Z,59.10
2019-05-25T08:12:36.212Z,59.30
2019-05-25T08:15:06.352Z,59.60
2019-05-25T08:17:38.226Z,60.50
2019-05-25T08:20:07.868Z,63.00
2019-05-25T08:22:36.643Z,62.40
2019-05-25T08:25:09.175Z,61.10
2019-05-25T08:27:38.049Z,63.50
2019-05-25T08:30:07.661Z,60.50
2019-05-25T08:32:36.564Z,59.00
2019-05-25T08:35:06.762Z,59.20
2019-05-25T08:37:35.540Z,59.60
2019-05-25T08:40:06.472Z,60.70
2019-05-25T08:42:35.307Z,61.40
2019-05-25T08:45:06.370Z,61.00
2019-05-25T08:47:39.070Z,60.40
2019-05-25T08:50:12.166Z,56.10
2019-05-25T08:52:43.667Z,56.90
2019-05-25T08:55:12.704Z,56.30
2019-05-25T08:57:41.758Z,57.50
2019-05-25T09:00:11.235Z,56.50
2019-05-25T09:02:41.145Z,57.20
2019-05-25T09:05:10.106Z,56.50
2019-05-25T09:07:40.599Z,58.20
2019-05-25T09:10:10.965Z,59.40
2019-05-25T09:12:39.906Z,61.70
2019-05-25T09:15:10.311Z,63.00
2019-05-25T09:17:39.160Z,64.30
2019-05-25T09:20:09.523Z,62.70
2019-05-25T09:22:38.412Z,62.70
2019-05-25T09:25:10.133Z,62.10
2019-05-25T09:27:39.275Z,61.70
2019-05-25T09:30:10.156Z,58.30
2019-05-25T09:32:39.344Z,57.60
2019-05-25T09:35:11.821Z,57.90
2019-05-25T09:37:40.656Z,55.90
2019-05-25T09:40:11.259Z,53.60
2019-05-25T09:42:40.262Z,47.40
2019-05-25T09:45:14.053Z,43.70
2019-05-25T09:47:41.443Z,44.50
2019-05-25T09:50:11.053Z,50.80
2019-05-25T09:52:41.391Z,55.10
2019-05-25T09:55:10.904Z,55.70
2019-05-25T09:57:41.773Z,56.60
2019-05-25T10:00:12.312Z,55.30
2019-05-25T10:02:43.873Z,54.50
2019-05-25T10:05:14.002Z,53.40
2019-05-25T10:07:42.823Z,46.30
2019-05-25T10:10:12.454Z,45.10
2019-05-25T10:12:41.384Z,43.00
2019-05-25T10:15:10.491Z,38.60
2019-05-25T10:17:39.469Z,38.50
2019-05-25T10:20:10.862Z,44.00
2019-05-25T10:22:39.904Z,48.70
2019-05-25T10:25:13.299Z,47.70
2019-05-25T10:27:42.243Z,46.90
2019-05-25T10:30:11.626Z,50.50
2019-05-25T10:32:40.569Z,47.60
2019-05-25T10:35:09.641Z,40.00
2019-05-25T10:37:41.527Z,37.30
2019-05-25T10:40:10.890Z,34.00
2019-05-25T10:42:40.009Z,32.50
2019-05-25T10:45:11.943Z,35.70
2019-05-25T10:47:43.236Z,39.90
2019-05-25T10:50:12.979Z,42.80
2019-05-25T10:52:41.789Z,41.70
2019-05-25T10:55:11.440Z,36.40
2019-05-25T10:57:43.402Z,29.60
2019-05-25T11:00:12.841Z,30.80
2019-05-25T11:02:41.704Z,30.60
2019-05-25T11:05:12.520Z,28.70
2019-05-25T11:07:41.276Z,29.70
2019-05-25T11:10:10.523Z,30.90
2019-05-25T11:12:39.437Z,32.60
2019-05-25T11:15:09.935Z,36.60
2019-05-25T11:17:39.132Z,39.10
2019-05-25T11:20:12.493Z,37.20
2019-05-25T11:22:41.308Z,37.70
2019-05-25T11:25:10.636Z,38.30
2019-05-25T11:27:39.449Z,36.30
2019-05-25T11:30:10.231Z,35.70
2019-05-25T11:32:39.407Z,37.40
2019-05-25T11:35:08.808Z,38.90
2019-05-25T11:37:37.635Z,39.40
2019-05-25T11:40:10.342Z,41.20
2019-05-25T11:42:39.260Z,39.70
2019-05-25T11:45:10.073Z,41.90
2019-05-25T11:47:38.900Z,42.60
2019-05-25T11:50:08.968Z,43.10
2019-05-25T11:52:38.014Z,41.00
2019-05-25T11:55:08.264Z,41.30
2019-05-25T11:57:37.092Z,39.50
2019-05-25T12:00:23.728Z,38.70
2019-05-25T12:02:40.566Z,39.60
2019-05-25T12:05:09.925Z,40.80
2019-05-25T12:07:38.753Z,42.70
2019-05-25T12:10:08.104Z,41.00
2019-05-25T12:12:36.938Z,37.70
2019-05-25T12:15:07.575Z,34.60
2019-05-25T12:17:36.419Z,35.20
2019-05-25T12:20:06.083Z,36.30
2019-05-25T12:22:34.949Z,36.70
2019-05-25T12:25:05.223Z,38.20
2019-05-25T12:27:34.069Z,39.30
2019-05-25T12:30:04.407Z,36.80
2019-05-25T12:32:33.309Z,38.20
2019-05-25T12:35:02.123Z,35.60
2019-05-25T12:37:31.085Z,30.80
2019-05-25T12:39:59.841Z,31.60
2019-05-25T12:42:28.856Z,32.30
2019-05-25T12:44:57.651Z,31.50
2019-05-25T12:47:26.511Z,31.90
2019-05-25T12:49:55.331Z,32.60
2019-05-25T12:52:24.172Z,34.10
2019-05-25T12:54:52.941Z,30.60
2019-05-25T12:57:24.248Z,31.20
2019-05-25T12:59:53.397Z,30.20
2019-05-25T13:02:23.695Z,30.80
2019-05-25T13:04:54.231Z,32.20
2019-05-25T13:07:23.078Z,31.30
2019-05-25T13:09:53.277Z,31.60
2019-05-25T13:12:22.218Z,32.70
2019-05-25T13:14:51.049Z,35.50
2019-05-25T13:17:19.897Z,35.30
2019-05-25T13:19:48.737Z,30.70
2019-05-25T13:22:19.789Z,30.40
2019-05-25T13:24:50.245Z,30.10
2019-05-25T13:27:19.091Z,31.50
2019-05-25T13:32:19.690Z,33.80
2019-05-25T13:34:49.769Z,32.80
2019-05-25T13:37:18.599Z,34.40
2019-05-25T13:39:47.429Z,37.60
2019-05-25T13:42:16.247Z,39.70
2019-05-25T13:44:45.146Z,37.40
2019-05-25T13:47:13.971Z,36.40
2019-05-25T13:49:42.705Z,34.70
2019-05-25T13:52:11.480Z,33.00
2019-05-25T13:54:40.312Z,33.30
2019-05-25T13:57:09.207Z,36.20
2019-05-25T13:59:38.029Z,39.20
2019-05-25T14:02:06.928Z,43.00
2019-05-25T14:04:35.754Z,44.30
2019-05-25T14:07:04.609Z,43.20
2019-05-25T14:09:33.479Z,43.10
2019-05-25T14:12:02.302Z,44.00
2019-05-25T14:14:31.152Z,44.70
2019-05-25T14:17:00.018Z,44.20
2019-05-25T14:19:28.790Z,45.00
2019-05-25T14:21:58.327Z,46.50
2019-05-25T14:24:27.381Z,48.60
2019-05-25T14:26:58.049Z,46.10
2019-05-25T14:29:27.416Z,42.60
2019-05-25T14:31:56.235Z,42.10
2019-05-25T14:34:28.814Z,44.00
2019-05-25T14:36:59.217Z,44.30
2019-05-25T14:39:29.184Z,46.00
2019-05-25T14:41:57.957Z,47.60
2019-05-25T14:44:28.244Z,46.20
2019-05-25T14:46:59.782Z,49.60
2019-05-25T14:49:31.952Z,50.20
2019-05-25T14:52:03.999Z,50.20
2019-05-25T14:54:35.192Z,50.20
2019-05-25T14:57:03.790Z,50.20
2019-05-25T14:59:32.649Z,47.30
2019-05-25T15:02:05.186Z,51.10
2019-05-25T15:04:33.381Z,51.80
2019-05-25T15:07:02.546Z,50.80
2019-05-25T15:09:31.418Z,53.00
2019-05-25T15:12:01.513Z,52.90
2019-05-25T15:14:30.241Z,49.30
2019-05-25T15:17:00.715Z,53.10
2019-05-25T15:19:29.594Z,47.90
2019-05-25T15:22:01.689Z,51.80
2019-05-25T15:24:31.186Z,52.60
2019-05-25T15:27:00.130Z,52.50
2019-05-25T15:29:29.126Z,52.90
2019-05-25T15:31:58.032Z,53.20
2019-05-25T15:34:26.830Z,54.40
2019-05-25T15:36:55.614Z,54.60
2019-05-25T15:39:24.462Z,49.70
2019-05-25T15:41:53.309Z,48.10
2019-05-25T15:44:22.168Z,48.60
2019-05-25T15:46:51.033Z,52.10
2019-05-25T15:49:21.338Z,52.20
2019-05-25T15:51:50.182Z,52.90
2019-05-25T15:54:18.994Z,53.50
2019-05-25T15:56:47.762Z,54.50
2019-05-25T15:59:16.588Z,54.00
2019-05-25T16:01:45.356Z,51.40
2019-05-25T16:04:14.212Z,54.60
2019-05-25T16:06:42.985Z,54.60
2019-05-25T16:09:11.964Z,50.90
2019-05-25T16:11:40.667Z,54.30
2019-05-25T16:14:09.520Z,53.40
2019-05-25T16:16:41.232Z,54.30
2019-05-25T16:19:10.334Z,54.70
2019-05-25T16:21:39.331Z,54.70
2019-05-25T16:24:10.787Z,55.30
2019-05-25T16:26:45.980Z,55.00
2019-05-25T16:29:13.123Z,56.20
2019-05-25T16:31:41.947Z,55.70
2019-05-25T16:34:10.800Z,56.00
2019-05-25T16:36:41.250Z,56.10
2019-05-25T16:39:10.520Z,53.40
2019-05-25T16:41:41.121Z,55.30
2019-05-25T16:44:10.042Z,54.90
2019-05-25T16:46:38.799Z,55.20
2019-05-25T16:49:07.670Z,56.10
2019-05-25T16:51:36.629Z,55.80
2019-05-25T16:54:05.468Z,55.60
2019-05-25T16:56:34.302Z,55.70
2019-05-25T16:59:04.670Z,55.90
2019-05-25T17:01:47.535Z,55.50
2019-05-25T17:04:04.443Z,56.70
2019-05-25T17:06:33.228Z,56.70
2019-05-25T17:09:02.109Z,57.30
2019-05-25T17:11:31.362Z,57.80
2019-05-25T17:14:00.261Z,56.70
2019-05-25T17:16:29.040Z,56.30
2019-05-25T17:18:58.867Z,56.50
2019-05-25T17:21:27.913Z,56.00
2019-05-25T17:23:56.883Z,56.60
2019-05-25T17:26:27.159Z,57.00
2019-05-25T17:28:56.884Z,57.20
2019-05-25T17:31:27.136Z,58.00
2019-05-25T17:33:56.052Z,61.90
2019-05-25T17:36:24.950Z,59.00
2019-05-25T17:38:53.863Z,59.40
2019-05-25T17:41:22.687Z,59.60
2019-05-25T17:43:51.687Z,60.00
2019-05-25T17:46:22.488Z,64.70
2019-05-25T17:48:52.282Z,61.40
2019-05-25T17:51:21.264Z,61.30
2019-05-25T17:53:53.479Z,65.60
2019-05-25T17:56:22.247Z,63.10
2019-05-25T17:58:51.199Z,68.50
2019-05-25T18:01:20.207Z,65.50
2019-05-25T18:04:06.563Z,69.50
2019-05-25T18:06:24.121Z,67.50
2019-05-25T18:08:52.978Z,67.10
2019-05-25T18:11:21.829Z,67.00
2019-05-25T18:13:50.648Z,66.90
2019-05-25T18:16:19.594Z,67.40
2019-05-25T18:18:48.550Z,70.50
2019-05-25T18:21:17.411Z,68.20
2019-05-25T18:23:46.668Z,67.90
2019-05-25T18:26:15.499Z,68.40
2019-05-25T18:28:46.423Z,68.20
2019-05-25T18:31:16.799Z,68.80
2019-05-25T18:33:45.622Z,67.60
2019-05-25T18:36:14.405Z,68.20
2019-05-25T18:38:44.805Z,68.30
2019-05-25T18:41:13.533Z,67.80
2019-05-25T18:43:42.396Z,67.20
2019-05-25T18:46:11.238Z,67.50
2019-05-25T18:48:43.603Z,68.30
2019-05-25T18:51:12.503Z,68.80
2019-05-25T18:53:41.376Z,67.80
2019-05-25T18:56:10.221Z,68.50
2019-05-25T18:58:39.128Z,68.90
2019-05-25T19:01:08.070Z,69.30
2019-05-25T19:03:38.496Z,68.80
2019-05-25T19:06:10.309Z,69.90
2019-05-25T19:08:39.137Z,71.50
2019-05-25T19:11:08.067Z,70.00
2019-05-25T19:13:36.927Z,69.70
2019-05-25T19:16:05.769Z,69.00
2019-05-25T19:18:34.649Z,69.50
2019-05-25T19:21:03.496Z,68.90
2019-05-25T19:23:32.272Z,68.90
2019-05-25T19:26:01.031Z,68.30
2019-05-25T19:28:29.907Z,68.90
2019-05-25T19:30:58.768Z,68.30
2019-05-25T19:33:27.652Z,68.30
2019-05-25T19:35:56.489Z,68.10
2019-05-25T19:38:25.325Z,67.60
2019-05-25T19:40:54.124Z,70.50
2019-05-25T19:43:22.955Z,68.30
2019-05-25T19:45:51.794Z,69.60
2019-05-25T19:48:20.857Z,67.10
2019-05-25T19:50:49.743Z,67.80
2019-05-25T19:53:18.736Z,67.00
2019-05-25T19:55:47.574Z,66.50
2019-05-25T19:58:16.364Z,66.80
2019-05-25T20:00:45.199Z,66.50
2019-05-25T20:03:15.142Z,65.50
2019-05-25T20:05:47.868Z,64.90
2019-05-25T20:08:18.756Z,64.30
2019-05-25T20:10:50.549Z,67.60
2019-05-25T20:13:19.601Z,64.40
2019-05-25T20:15:48.471Z,64.70
2019-05-25T20:18:17.360Z,64.50
2019-05-25T20:20:47.807Z,64.90
2019-05-25T20:23:19.779Z,68.80
2019-05-25T20:25:50.565Z,69.30
2019-05-25T20:28:19.339Z,66.80
2019-05-25T20:30:48.191Z,66.50
2019-05-25T20:33:26.901Z,66.50
2019-05-25T20:35:49.016Z,67.50
2019-05-25T20:38:18.983Z,67.80
2019-05-25T20:40:47.743Z,68.20
2019-05-25T20:43:16.575Z,69.10
2019-05-25T20:45:45.471Z,68.60
2019-05-25T20:48:14.241Z,69.60
2019-05-25T20:50:43.523Z,70.00
2019-05-25T20:53:12.341Z,72.80
2019-05-25T20:55:41.184Z,72.70
2019-05-25T20:58:10.042Z,71.30
2019-05-25T21:00:38.927Z,72.10
2019-05-25T21:03:07.786Z,73.00
2019-05-25T21:05:49.870Z,73.60
2019-05-25T21:08:07.070Z,74.00
2019-05-25T21:10:35.937Z,74.60
2019-05-25T21:13:04.763Z,76.90
2019-05-25T21:15:33.570Z,77.20
2019-05-25T21:18:04.187Z,76.30
2019-05-25T21:20:32.952Z,76.20
2019-05-25T21:23:03.115Z,76.50
2019-05-25T21:25:36.365Z,76.70
2019-05-25T21:28:08.408Z,77.10
2019-05-25T21:30:37.283Z,77.30
2019-05-25T21:33:06.095Z,77.50
2019-05-25T21:35:34.939Z,78.40
2019-05-25T21:38:03.799Z,77.60
2019-05-25T21:40:32.567Z,78.30
2019-05-25T21:43:01.524Z,78.80
2019-05-25T21:45:30.349Z,79.70
2019-05-25T21:47:59.223Z,80.00
2019-05-25T21:50:27.989Z,80.50
2019-05-25T21:52:56.836Z,80.60
2019-05-25T21:55:25.686Z,80.90
2019-05-25T21:57:54.533Z,81.20
2019-05-25T22:00:25.945Z,80.60
2019-05-25T22:02:57.838Z,81.00
2019-05-25T22:05:30.435Z,81.80
2019-05-25T22:07:57.871Z,82.90
2019-05-25T22:10:27.046Z,83.80
2019-05-25T22:12:56.023Z,83.10
2019-05-25T22:15:24.897Z,82.90
2019-05-25T22:17:53.746Z,83.10
2019-05-25T22:20:22.667Z,83.20
2019-05-25T22:22:51.420Z,83.40
2019-05-25T22:25:20.259Z,84.30
2019-05-25T22:27:49.176Z,84.70
2019-05-25T22:30:18.415Z,84.90
2019-05-25T22:32:47.233Z,85.70
2019-05-25T22:35:16.091Z,85.00
2019-05-25T22:37:44.858Z,85.00
2019-05-25T22:40:14.839Z,85.20
2019-05-25T22:42:43.660Z,85.60
2019-05-25T22:45:13.126Z,85.80
2019-05-25T22:47:41.884Z,86.30
2019-05-25T22:50:12.511Z,86.70
2019-05-25T22:52:41.284Z,86.60
2019-05-25T22:55:10.739Z,86.20
2019-05-25T22:57:39.585Z,86.20
2019-05-25T23:00:12.089Z,86.20
2019-05-25T23:02:41.023Z,86.90
2019-05-25T23:05:10.091Z,86.30
2019-05-25T23:07:38.928Z,86.80
2019-05-25T23:10:10.225Z,86.80
2019-05-25T23:12:39.063Z,87.10
2019-05-25T23:15:08.687Z,87.30
2019-05-25T23:17:37.524Z,87.50
2019-05-25T23:20:07.962Z,87.70
2019-05-25T23:22:36.794Z,88.30
2019-05-25T23:25:05.796Z,90.00
2019-05-25T23:27:34.604Z,90.20
2019-05-25T23:30:03.467Z,90.30
2019-05-25T23:32:32.242Z,89.90
2019-05-25T23:35:01.013Z,90.50
2019-05-25T23:37:29.792Z,90.10
2019-05-25T23:39:58.634Z,90.00
2019-05-25T23:42:27.417Z,89.80
2019-05-25T23:44:56.267Z,90.20
2019-05-25T23:47:25.100Z,90.10
2019-05-25T23:49:53.967Z,90.10
2019-05-25T23:52:22.811Z,90.20
2019-05-25T23:54:51.595Z,90.20
2019-05-25T23:57:20.469Z,90.30
2019-05-25T23:59:49.299Z,90.40
